Fort Smith, AR (72901)

10:36 AM CDT on September 01, 2015 (GMT -0500)
LCEM - Arkoma Elem. School | | Change Station
CLOSE
Current Station
Personal Weather Station
Location: Arkoma, OK
Elevation: 597 ft
Nearby Weather Stations

Elev 597 ft 35.35 °N, 94.44 °W | Updated 3 seconds ago

Clear
Clear
82.8 °F
Feels Like 87 °F
N
0.0
Wind Variable Wind from ENE
Gusts 5.0 mph

Today
High -- | Low -- °F
--% Chance of Precip.
Yesterday
High -- | Low -- °F
Precip. -- in
6:49 AM 7:44 PM
Waning Gibbous, 88% visible
Pressure 30.06 in
Visibility 8.0 miles
Clouds Clear
Heat Index 87 °F
Dew Point 71 °F
Humidity 68%
Rainfall 0.00 in
Snow Depth Not available.
UV 12.2 out of 12
Pollen 10.30 out of 12
Air Quality Not available.
Flu Activity Not available.
METAR KFSM 011453Z 08003KT 8SM CLR 26/20 A3008 RMK AO2 SLP180 T02610200 53004
Pressure 30.06 in
Visibility 8.0 miles
Clouds Clear
Heat Index 87 °F
Dew Point 71 °F
Humidity 68%
Rainfall 0.00 in
Snow Depth Not available.
UV 12.2 out of 12
Pollen 10.30 out of 12
Air Quality Not available.
Flu Activity Not available.
METAR KFSM 011453Z 08003KT 8SM CLR 26/20 A3008 RMK AO2 SLP180 T02610200 53004

10-Day Weather Forecast

×

Almanac

Astronomy

Sep. 01, 2015 Rise Set
Actual Time
Civil Twilight
Nautical Twilight
Astronomical Twilight
Moon
Length of Visible Light
Length of Day
Tomorrow will be .
, % of the Moon is Illuminated

Today's Extremes

State Highs State Lows

Community

WunderPhotos

Upload Photos

1,851,523 photos uploaded!

WunderBlogs® & News

Nearby

Air Quality

  Air Quality AQ Index Pollutant
Not available.

Snow Depth

Station Depth Elevation

Earthquake Activity

City Distance Mag. Time & Date
Minimum magnitude displayed is 2.5.

Coastal Water Temperatures

Place Temperature

Stations

Nearby Weather Stations

Station Location Temp. Windchill Dew Point Humidity Wind Precip. Elev Updated Type